sensor_id;sensor_type;location;lat;lon;timestamp;temperature;humidity
2721;DHT22;1368;49.484;11.112;2022-07-17T00:00:19;15.90;96.60
2721;DHT22;1368;49.484;11.112;2022-07-17T00:02:44;15.90;96.10
2721;DHT22;1368;49.484;11.112;2022-07-17T00:05:10;15.90;96.20
2721;DHT22;1368;49.484;11.112;2022-07-17T00:07:36;15.80;96.20
2721;DHT22;1368;49.484;11.112;2022-07-17T00:10:02;16.00;95.80
2721;DHT22;1368;49.484;11.112;2022-07-17T00:12:28;15.60;95.50
2721;DHT22;1368;49.484;11.112;2022-07-17T00:14:53;15.70;95.40
2721;DHT22;1368;49.484;11.112;2022-07-17T00:17:19;16.20;95.50
2721;DHT22;1368;49.484;11.112;2022-07-17T00:19:46;16.20;96.40
2721;DHT22;1368;49.484;11.112;2022-07-17T00:22:12;15.60;97.10
2721;DHT22;1368;49.484;11.112;2022-07-17T00:24:38;15.50;97.30
2721;DHT22;1368;49.484;11.112;2022-07-17T00:27:04;15.40;97.10
2721;DHT22;1368;49.484;11.112;2022-07-17T00:29:29;15.30;97.30
2721;DHT22;1368;49.484;11.112;2022-07-17T00:31:55;15.30;97.30
2721;DHT22;1368;49.484;11.112;2022-07-17T00:34:20;15.60;97.60
2721;DHT22;1368;49.484;11.112;2022-07-17T00:36:46;15.20;97.50
2721;DHT22;1368;49.484;11.112;2022-07-17T00:39:11;15.70;97.90
2721;DHT22;1368;49.484;11.112;2022-07-17T00:41:37;15.50;97.90
2721;DHT22;1368;49.484;11.112;2022-07-17T00:44:06;15.00;98.10
2721;DHT22;1368;49.484;11.112;2022-07-17T00:46:31;15.00;98.40
2721;DHT22;1368;49.484;11.112;2022-07-17T00:48:57;14.90;98.30
2721;DHT22;1368;49.484;11.112;2022-07-17T00:51:23;14.90;98.60
2721;DHT22;1368;49.484;11.112;2022-07-17T00:53:50;14.80;99.10
2721;DHT22;1368;49.484;11.112;2022-07-17T00:56:17;14.80;99.50
2721;DHT22;1368;49.484;11.112;2022-07-17T00:58:44;15.40;99.90
2721;DHT22;1368;49.484;11.112;2022-07-17T01:01:10;14.60;99.90
2721;DHT22;1368;49.484;11.112;2022-07-17T01:03:35;14.60;99.90
2721;DHT22;1368;49.484;11.112;2022-07-17T01:06:02;14.50;99.90
2721;DHT22;1368;49.484;11.112;2022-07-17T01:08:28;14.40;99.90
2721;DHT22;1368;49.484;11.112;2022-07-17T01:10:54;14.30;99.90
2721;DHT22;1368;49.484;11.112;2022-07-17T01:13:20;14.80;99.90
2721;DHT22;1368;49.484;11.112;2022-07-17T01:15:46;14.30;99.90
2721;DHT22;1368;49.484;11.112;2022-07-17T01:18:13;14.20;99.90
2721;DHT22;1368;49.484;11.112;2022-07-17T01:20:43;14.20;99.90
2721;DHT22;1368;49.484;11.112;2022-07-17T01:23:09;14.10;99.90
2721;DHT22;1368;49.484;11.112;2022-07-17T01:25:35;14.70;99.90
2721;DHT22;1368;49.484;11.112;2022-07-17T01:28:01;14.10;99.90
2721;DHT22;1368;49.484;11.112;2022-07-17T01:30:28;14.10;99.90
2721;DHT22;1368;49.484;11.112;2022-07-17T01:32:53;14.40;99.90
2721;DHT22;1368;49.484;11.112;2022-07-17T01:35:19;13.90;99.90
2721;DHT22;1368;49.484;11.112;2022-07-17T01:37:45;13.90;99.90
2721;DHT22;1368;49.484;11.112;2022-07-17T01:40:13;13.90;99.90
2721;DHT22;1368;49.484;11.112;2022-07-17T01:42:41;13.80;99.90
2721;DHT22;1368;49.484;11.112;2022-07-17T01:45:07;13.80;99.90
2721;DHT22;1368;49.484;11.112;2022-07-17T01:47:33;13.70;99.90
2721;DHT22;1368;49.484;11.112;2022-07-17T01:50:00;13.70;99.90
2721;DHT22;1368;49.484;11.112;2022-07-17T01:52:26;13.70;99.90
2721;DHT22;1368;49.484;11.112;2022-07-17T01:54:52;13.60;99.90
2721;DHT22;1368;49.484;11.112;2022-07-17T01:57:18;13.60;99.90
2721;DHT22;1368;49.484;11.112;2022-07-17T01:59:44;13.60;99.90
2721;DHT22;1368;49.484;11.112;2022-07-17T02:02:10;13.60;99.90
2721;DHT22;1368;49.484;11.112;2022-07-17T02:04:37;13.60;99.90
2721;DHT22;1368;49.484;11.112;2022-07-17T02:07:04;13.60;99.90
2721;DHT22;1368;49.484;11.112;2022-07-17T02:09:30;13.50;99.90
2721;DHT22;1368;49.484;11.112;2022-07-17T02:11:56;13.40;99.90
2721;DHT22;1368;49.484;11.112;2022-07-17T02:14:22;13.40;99.90
2721;DHT22;1368;49.484;11.112;2022-07-17T02:16:48;13.30;99.90
2721;DHT22;1368;49.484;11.112;2022-07-17T02:19:13;13.50;99.90
2721;DHT22;1368;49.484;11.112;2022-07-17T02:21:39;13.00;99.90
2721;DHT22;1368;49.484;11.112;2022-07-17T02:24:05;13.00;99.90
2721;DHT22;1368;49.484;11.112;2022-07-17T02:26:31;13.00;99.90
2721;DHT22;1368;49.484;11.112;2022-07-17T02:28:57;13.10;99.90
2721;DHT22;1368;49.484;11.112;2022-07-17T02:31:22;13.00;99.90
2721;DHT22;1368;49.484;11.112;2022-07-17T02:33:48;12.90;99.90
2721;DHT22;1368;49.484;11.112;2022-07-17T02:36:13;12.90;99.90
2721;DHT22;1368;49.484;11.112;2022-07-17T02:38:39;12.80;99.90
2721;DHT22;1368;49.484;11.112;2022-07-17T02:41:05;12.80;99.90
2721;DHT22;1368;49.484;11.112;2022-07-17T02:43:31;12.80;99.90
2721;DHT22;1368;49.484;11.112;2022-07-17T02:45:57;12.80;99.90
2721;DHT22;1368;49.484;11.112;2022-07-17T02:48:22;12.80;99.90
2721;DHT22;1368;49.484;11.112;2022-07-17T02:50:48;12.80;99.90
2721;DHT22;1368;49.484;11.112;2022-07-17T02:53:14;12.80;99.90
2721;DHT22;1368;49.484;11.112;2022-07-17T02:55:39;12.70;99.90
2721;DHT22;1368;49.484;11.112;2022-07-17T02:58:05;12.70;99.90
2721;DHT22;1368;49.484;11.112;2022-07-17T03:00:30;12.60;99.90
2721;DHT22;1368;49.484;11.112;2022-07-17T03:02:56;13.30;99.90
2721;DHT22;1368;49.484;11.112;2022-07-17T03:05:22;12.80;99.90
2721;DHT22;1368;49.484;11.112;2022-07-17T03:07:48;12.60;99.90
2721;DHT22;1368;49.484;11.112;2022-07-17T03:10:14;12.50;99.90
2721;DHT22;1368;49.484;11.112;2022-07-17T03:12:40;12.50;99.90
2721;DHT22;1368;49.484;11.112;2022-07-17T03:15:07;12.50;99.90
2721;DHT22;1368;49.484;11.112;2022-07-17T03:17:33;12.50;99.90
2721;DHT22;1368;49.484;11.112;2022-07-17T03:19:58;12.50;99.90
2721;DHT22;1368;49.484;11.112;2022-07-17T03:22:24;12.50;99.90
2721;DHT22;1368;49.484;11.112;2022-07-17T03:24:50;12.70;99.90
2721;DHT22;1368;49.484;11.112;2022-07-17T03:27:15;12.40;99.90
2721;DHT22;1368;49.484;11.112;2022-07-17T03:29:41;12.70;99.90
2721;DHT22;1368;49.484;11.112;2022-07-17T03:32:06;12.30;99.90
2721;DHT22;1368;49.484;11.112;2022-07-17T03:34:32;12.30;99.90
2721;DHT22;1368;49.484;11.112;2022-07-17T03:36:58;12.30;99.90
2721;DHT22;1368;49.484;11.112;2022-07-17T03:39:23;12.30;99.90
2721;DHT22;1368;49.484;11.112;2022-07-17T03:41:49;12.40;99.90
2721;DHT22;1368;49.484;11.112;2022-07-17T03:44:14;12.40;99.90
2721;DHT22;1368;49.484;11.112;2022-07-17T03:46:40;12.60;99.90
2721;DHT22;1368;49.484;11.112;2022-07-17T03:49:05;12.50;99.90
2721;DHT22;1368;49.484;11.112;2022-07-17T03:51:31;12.50;99.90
2721;DHT22;1368;49.484;11.112;2022-07-17T03:53:57;12.60;99.90
2721;DHT22;1368;49.484;11.112;2022-07-17T03:56:23;12.80;99.90
2721;DHT22;1368;49.484;11.112;2022-07-17T03:58:48;13.30;99.90
2721;DHT22;1368;49.484;11.112;2022-07-17T04:01:14;13.20;99.90
2721;DHT22;1368;49.484;11.112;2022-07-17T04:03:40;13.40;99.90
2721;DHT22;1368;49.484;11.112;2022-07-17T04:06:05;13.80;99.90
2721;DHT22;1368;49.484;11.112;2022-07-17T04:08:31;14.30;99.90
2721;DHT22;1368;49.484;11.112;2022-07-17T04:10:57;15.10;99.90
2721;DHT22;1368;49.484;11.112;2022-07-17T04:13:23;16.20;99.90
2721;DHT22;1368;49.484;11.112;2022-07-17T04:15:48;16.60;99.90
2721;DHT22;1368;49.484;11.112;2022-07-17T04:18:30;17.10;99.80
2721;DHT22;1368;49.484;11.112;2022-07-17T04:21:02;17.70;97.90
2721;DHT22;1368;49.484;11.112;2022-07-17T04:23:28;18.40;97.50
2721;DHT22;1368;49.484;11.112;2022-07-17T04:25:54;19.20;95.20
2721;DHT22;1368;49.484;11.112;2022-07-17T04:28:20;19.70;94.50
2721;DHT22;1368;49.484;11.112;2022-07-17T04:30:46;20.50;92.60
2721;DHT22;1368;49.484;11.112;2022-07-17T04:33:11;20.70;91.80
2721;DHT22;1368;49.484;11.112;2022-07-17T04:35:37;20.70;91.20
2721;DHT22;1368;49.484;11.112;2022-07-17T04:38:04;20.80;90.40
2721;DHT22;1368;49.484;11.112;2022-07-17T04:40:31;21.20;89.30
2721;DHT22;1368;49.484;11.112;2022-07-17T04:42:57;21.40;88.70
2721;DHT22;1368;49.484;11.112;2022-07-17T04:45:23;21.90;86.70
2721;DHT22;1368;49.484;11.112;2022-07-17T04:47:48;22.20;85.70
2721;DHT22;1368;49.484;11.112;2022-07-17T04:50:14;22.70;82.50
2721;DHT22;1368;49.484;11.112;2022-07-17T04:52:40;22.60;82.70
2721;DHT22;1368;49.484;11.112;2022-07-17T04:55:06;21.70;82.40
2721;DHT22;1368;49.484;11.112;2022-07-17T04:57:31;21.10;83.80
2721;DHT22;1368;49.484;11.112;2022-07-17T04:59:57;20.50;85.90
2721;DHT22;1368;49.484;11.112;2022-07-17T05:02:22;20.20;87.60
2721;DHT22;1368;49.484;11.112;2022-07-17T05:04:49;20.90;86.70
2721;DHT22;1368;49.484;11.112;2022-07-17T05:07:14;21.60;83.90
2721;DHT22;1368;49.484;11.112;2022-07-17T05:09:40;22.40;83.50
2721;DHT22;1368;49.484;11.112;2022-07-17T05:12:06;22.80;81.00
2721;DHT22;1368;49.484;11.112;2022-07-17T05:14:32;23.70;80.30
2721;DHT22;1368;49.484;11.112;2022-07-17T05:16:57;24.50;77.70
2721;DHT22;1368;49.484;11.112;2022-07-17T05:19:23;24.80;76.10
2721;DHT22;1368;49.484;11.112;2022-07-17T05:21:49;25.30;73.50
2721;DHT22;1368;49.484;11.112;2022-07-17T05:24:15;25.60;71.80
2721;DHT22;1368;49.484;11.112;2022-07-17T05:26:40;25.20;71.30
2721;DHT22;1368;49.484;11.112;2022-07-17T05:29:06;25.60;68.70
2721;DHT22;1368;49.484;11.112;2022-07-17T05:31:32;25.90;69.30
2721;DHT22;1368;49.484;11.112;2022-07-17T05:33:57;26.70;65.00
2721;DHT22;1368;49.484;11.112;2022-07-17T05:36:23;27.00;63.40
2721;DHT22;1368;49.484;11.112;2022-07-17T05:38:48;27.40;60.50
2721;DHT22;1368;49.484;11.112;2022-07-17T05:41:14;27.10;59.90
2721;DHT22;1368;49.484;11.112;2022-07-17T05:43:40;27.00;59.90
2721;DHT22;1368;49.484;11.112;2022-07-17T05:46:05;26.90;60.10
2721;DHT22;1368;49.484;11.112;2022-07-17T05:48:31;27.20;59.20
2721;DHT22;1368;49.484;11.112;2022-07-17T05:50:57;27.60;58.70
2721;DHT22;1368;49.484;11.112;2022-07-17T05:53:23;27.30;57.50
2721;DHT22;1368;49.484;11.112;2022-07-17T05:55:49;27.40;57.00
2721;DHT22;1368;49.484;11.112;2022-07-17T05:58:15;27.20;57.20
2721;DHT22;1368;49.484;11.112;2022-07-17T06:00:41;27.00;57.50
2721;DHT22;1368;49.484;11.112;2022-07-17T06:03:06;27.30;57.20
2721;DHT22;1368;49.484;11.112;2022-07-17T06:05:32;27.20;56.90
2721;DHT22;1368;49.484;11.112;2022-07-17T06:07:58;27.20;55.90
2721;DHT22;1368;49.484;11.112;2022-07-17T06:10:25;27.10;56.30
2721;DHT22;1368;49.484;11.112;2022-07-17T06:12:51;27.80;56.20
2721;DHT22;1368;49.484;11.112;2022-07-17T06:15:19;27.90;54.90
2721;DHT22;1368;49.484;11.112;2022-07-17T06:17:45;27.80;54.40
2721;DHT22;1368;49.484;11.112;2022-07-17T06:20:12;27.60;54.80
2721;DHT22;1368;49.484;11.112;2022-07-17T06:22:38;28.00;54.50
2721;DHT22;1368;49.484;11.112;2022-07-17T06:25:04;28.60;54.00
2721;DHT22;1368;49.484;11.112;2022-07-17T06:27:30;28.90;53.10
2721;DHT22;1368;49.484;11.112;2022-07-17T06:29:56;29.40;52.30
2721;DHT22;1368;49.484;11.112;2022-07-17T06:32:21;29.60;51.50
2721;DHT22;1368;49.484;11.112;2022-07-17T06:34:47;30.00;52.10
2721;DHT22;1368;49.484;11.112;2022-07-17T06:37:12;30.00;50.70
2721;DHT22;1368;49.484;11.112;2022-07-17T06:39:38;30.20;50.70
2721;DHT22;1368;49.484;11.112;2022-07-17T06:42:04;30.70;50.30
2721;DHT22;1368;49.484;11.112;2022-07-17T06:44:29;31.20;49.90
2721;DHT22;1368;49.484;11.112;2022-07-17T06:46:55;31.60;49.40
2721;DHT22;1368;49.484;11.112;2022-07-17T06:49:21;31.80;49.90
2721;DHT22;1368;49.484;11.112;2022-07-17T06:51:46;31.60;50.50
2721;DHT22;1368;49.484;11.112;2022-07-17T06:54:13;31.60;48.80
2721;DHT22;1368;49.484;11.112;2022-07-17T06:56:40;31.60;48.90
2721;DHT22;1368;49.484;11.112;2022-07-17T06:59:05;31.60;47.60
2721;DHT22;1368;49.484;11.112;2022-07-17T07:01:35;31.10;48.20
2721;DHT22;1368;49.484;11.112;2022-07-17T07:04:01;31.00;48.10
2721;DHT22;1368;49.484;11.112;2022-07-17T07:06:27;31.70;48.00
2721;DHT22;1368;49.484;11.112;2022-07-17T07:08:53;32.70;46.70
2721;DHT22;1368;49.484;11.112;2022-07-17T07:11:18;33.10;45.50
2721;DHT22;1368;49.484;11.112;2022-07-17T07:13:44;33.10;45.60
2721;DHT22;1368;49.484;11.112;2022-07-17T07:16:09;33.60;45.00
2721;DHT22;1368;49.484;11.112;2022-07-17T07:18:36;33.80;45.50
2721;DHT22;1368;49.484;11.112;2022-07-17T07:21:02;34.20;45.10
2721;DHT22;1368;49.484;11.112;2022-07-17T07:23:28;34.50;43.60
2721;DHT22;1368;49.484;11.112;2022-07-17T07:25:54;34.60;43.90
2721;DHT22;1368;49.484;11.112;2022-07-17T07:28:20;35.40;43.20
2721;DHT22;1368;49.484;11.112;2022-07-17T07:30:45;35.80;42.60
2721;DHT22;1368;49.484;11.112;2022-07-17T07:33:11;36.30;42.90
2721;DHT22;1368;49.484;11.112;2022-07-17T07:35:37;36.80;41.30
2721;DHT22;1368;49.484;11.112;2022-07-17T07:38:03;36.10;41.10
2721;DHT22;1368;49.484;11.112;2022-07-17T07:40:29;35.20;42.40
2721;DHT22;1368;49.484;11.112;2022-07-17T07:42:54;35.50;42.90
2721;DHT22;1368;49.484;11.112;2022-07-17T07:45:20;35.30;42.30
2721;DHT22;1368;49.484;11.112;2022-07-17T07:47:47;35.10;42.50
2721;DHT22;1368;49.484;11.112;2022-07-17T07:50:14;34.10;42.20
2721;DHT22;1368;49.484;11.112;2022-07-17T07:52:40;33.60;42.30
2721;DHT22;1368;49.484;11.112;2022-07-17T07:55:07;33.60;42.50
2721;DHT22;1368;49.484;11.112;2022-07-17T07:57:33;34.10;42.00
2721;DHT22;1368;49.484;11.112;2022-07-17T07:59:59;34.70;41.90
2721;DHT22;1368;49.484;11.112;2022-07-17T08:02:25;35.10;40.80
2721;DHT22;1368;49.484;11.112;2022-07-17T08:04:51;35.00;41.10
2721;DHT22;1368;49.484;11.112;2022-07-17T08:07:17;35.40;41.20
2721;DHT22;1368;49.484;11.112;2022-07-17T08:09:42;36.00;40.70
2721;DHT22;1368;49.484;11.112;2022-07-17T08:12:08;35.90;39.80
2721;DHT22;1368;49.484;11.112;2022-07-17T08:14:33;36.50;40.70
2721;DHT22;1368;49.484;11.112;2022-07-17T08:16:59;36.40;39.90
2721;DHT22;1368;49.484;11.112;2022-07-17T08:19:24;36.50;40.30
2721;DHT22;1368;49.484;11.112;2022-07-17T08:21:50;36.50;39.30
2721;DHT22;1368;49.484;11.112;2022-07-17T08:24:16;35.80;40.30
2721;DHT22;1368;49.484;11.112;2022-07-17T08:26:42;35.70;40.70
2721;DHT22;1368;49.484;11.112;2022-07-17T08:29:07;35.70;39.40
2721;DHT22;1368;49.484;11.112;2022-07-17T08:31:33;35.20;41.10
2721;DHT22;1368;49.484;11.112;2022-07-17T08:33:59;35.50;40.40
2721;DHT22;1368;49.484;11.112;2022-07-17T08:36:24;35.50;40.00
2721;DHT22;1368;49.484;11.112;2022-07-17T08:38:50;36.40;40.40
2721;DHT22;1368;49.484;11.112;2022-07-17T08:41:16;36.70;40.70
2721;DHT22;1368;49.484;11.112;2022-07-17T08:43:43;36.80;39.60
2721;DHT22;1368;49.484;11.112;2022-07-17T08:46:10;37.20;39.50
2721;DHT22;1368;49.484;11.112;2022-07-17T08:48:40;36.70;39.80
2721;DHT22;1368;49.484;11.112;2022-07-17T08:51:08;37.00;40.50
2721;DHT22;1368;49.484;11.112;2022-07-17T08:53:35;37.20;38.50
2721;DHT22;1368;49.484;11.112;2022-07-17T08:56:00;37.10;38.10
2721;DHT22;1368;49.484;11.112;2022-07-17T08:58:26;36.10;38.10
2721;DHT22;1368;49.484;11.112;2022-07-17T09:00:51;34.30;40.70
2721;DHT22;1368;49.484;11.112;2022-07-17T09:03:17;34.20;40.10
2721;DHT22;1368;49.484;11.112;2022-07-17T09:05:44;34.10;40.60
2721;DHT22;1368;49.484;11.112;2022-07-17T09:08:17;34.20;42.20
2721;DHT22;1368;49.484;11.112;2022-07-17T09:10:46;34.90;41.40
2721;DHT22;1368;49.484;11.112;2022-07-17T09:15:46;36.10;40.00
2721;DHT22;1368;49.484;11.112;2022-07-17T09:18:12;35.90;39.80
2721;DHT22;1368;49.484;11.112;2022-07-17T09:20:47;35.40;39.20
2721;DHT22;1368;49.484;11.112;2022-07-17T09:23:12;34.70;39.80
2721;DHT22;1368;49.484;11.112;2022-07-17T09:25:44;33.80;39.90
2721;DHT22;1368;49.484;11.112;2022-07-17T09:28:13;33.40;41.00
2721;DHT22;1368;49.484;11.112;2022-07-17T09:30:47;33.70;40.30
2721;DHT22;1368;49.484;11.112;2022-07-17T09:33:18;34.30;40.80
2721;DHT22;1368;49.484;11.112;2022-07-17T09:35:56;34.40;39.30
2721;DHT22;1368;49.484;11.112;2022-07-17T09:38:30;34.10;39.70
2721;DHT22;1368;49.484;11.112;2022-07-17T09:46:22;34.30;40.00
2721;DHT22;1368;49.484;11.112;2022-07-17T09:48:53;34.80;40.80
2721;DHT22;1368;49.484;11.112;2022-07-17T09:51:31;35.40;40.90
2721;DHT22;1368;49.484;11.112;2022-07-17T09:53:59;35.80;39.00
2721;DHT22;1368;49.484;11.112;2022-07-17T09:56:33;35.10;39.20
2721;DHT22;1368;49.484;11.112;2022-07-17T09:59:04;34.20;39.30
2721;DHT22;1368;49.484;11.112;2022-07-17T10:01:31;33.30;40.30
2721;DHT22;1368;49.484;11.112;2022-07-17T10:03:57;32.90;41.60
2721;DHT22;1368;49.484;11.112;2022-07-17T10:06:24;32.80;40.80
2721;DHT22;1368;49.484;11.112;2022-07-17T10:08:51;33.10;41.00
2721;DHT22;1368;49.484;11.112;2022-07-17T10:11:19;33.70;41.20
2721;DHT22;1368;49.484;11.112;2022-07-17T10:13:46;34.30;40.00
2721;DHT22;1368;49.484;11.112;2022-07-17T10:16:13;34.50;40.30
2721;DHT22;1368;49.484;11.112;2022-07-17T10:18:41;34.90;40.20
2721;DHT22;1368;49.484;11.112;2022-07-17T10:21:15;34.50;39.60
2721;DHT22;1368;49.484;11.112;2022-07-17T10:23:43;33.20;40.00
2721;DHT22;1368;49.484;11.112;2022-07-17T10:26:12;33.60;42.00
2721;DHT22;1368;49.484;11.112;2022-07-17T10:28:45;34.80;40.60
2721;DHT22;1368;49.484;11.112;2022-07-17T10:31:25;35.20;38.70
2721;DHT22;1368;49.484;11.112;2022-07-17T10:34:02;34.60;40.00
2721;DHT22;1368;49.484;11.112;2022-07-17T10:39:19;34.80;40.40
2721;DHT22;1368;49.484;11.112;2022-07-17T10:42:01;33.90;39.20
2721;DHT22;1368;49.484;11.112;2022-07-17T10:44:28;33.60;41.30
2721;DHT22;1368;49.484;11.112;2022-07-17T10:46:55;33.80;40.50
2721;DHT22;1368;49.484;11.112;2022-07-17T10:49:24;34.70;40.30
2721;DHT22;1368;49.484;11.112;2022-07-17T10:51:51;35.30;39.60
2721;DHT22;1368;49.484;11.112;2022-07-17T10:54:18;35.70;37.90
2721;DHT22;1368;49.484;11.112;2022-07-17T10:56:43;35.70;38.50
2721;DHT22;1368;49.484;11.112;2022-07-17T10:59:12;35.40;39.10
2721;DHT22;1368;49.484;11.112;2022-07-17T11:01:38;34.90;39.30
2721;DHT22;1368;49.484;11.112;2022-07-17T11:04:05;35.20;38.90
2721;DHT22;1368;49.484;11.112;2022-07-17T11:06:37;35.00;39.60
2721;DHT22;1368;49.484;11.112;2022-07-17T11:11:47;33.80;39.60
2721;DHT22;1368;49.484;11.112;2022-07-17T11:14:15;33.80;39.00
2721;DHT22;1368;49.484;11.112;2022-07-17T11:16:58;33.50;39.50
2721;DHT22;1368;49.484;11.112;2022-07-17T11:19:38;33.50;38.80
2721;DHT22;1368;49.484;11.112;2022-07-17T11:22:06;33.00;39.20
2721;DHT22;1368;49.484;11.112;2022-07-17T11:24:40;32.70;39.90
2721;DHT22;1368;49.484;11.112;2022-07-17T11:27:09;32.20;38.70
2721;DHT22;1368;49.484;11.112;2022-07-17T11:29:38;32.10;41.00
2721;DHT22;1368;49.484;11.112;2022-07-17T11:32:04;32.00;40.80
2721;DHT22;1368;49.484;11.112;2022-07-17T11:34:30;32.00;40.50
2721;DHT22;1368;49.484;11.112;2022-07-17T11:37:00;31.80;40.90
2721;DHT22;1368;49.484;11.112;2022-07-17T11:39:40;31.80;41.30
2721;DHT22;1368;49.484;11.112;2022-07-17T11:42:11;32.10;39.10
2721;DHT22;1368;49.484;11.112;2022-07-17T11:44:37;32.30;40.10
2721;DHT22;1368;49.484;11.112;2022-07-17T11:47:03;32.20;39.00
2721;DHT22;1368;49.484;11.112;2022-07-17T11:51:59;30.80;38.50
2721;DHT22;1368;49.484;11.112;2022-07-17T11:54:26;30.10;41.10
2721;DHT22;1368;49.484;11.112;2022-07-17T11:56:54;29.70;40.00
2721;DHT22;1368;49.484;11.112;2022-07-17T11:59:29;30.00;41.70
2721;DHT22;1368;49.484;11.112;2022-07-17T12:01:55;30.40;40.60
2721;DHT22;1368;49.484;11.112;2022-07-17T12:04:21;30.60;38.40
2721;DHT22;1368;49.484;11.112;2022-07-17T12:06:58;30.30;38.80
2721;DHT22;1368;49.484;11.112;2022-07-17T12:09:32;30.00;39.10
2721;DHT22;1368;49.484;11.112;2022-07-17T12:12:01;29.90;38.80
2721;DHT22;1368;49.484;11.112;2022-07-17T12:14:27;29.90;39.30
2721;DHT22;1368;49.484;11.112;2022-07-17T12:16:52;30.00;40.40
2721;DHT22;1368;49.484;11.112;2022-07-17T12:19:23;29.80;38.80
2721;DHT22;1368;49.484;11.112;2022-07-17T12:21:57;29.90;39.30
2721;DHT22;1368;49.484;11.112;2022-07-17T12:24:26;30.10;39.60
2721;DHT22;1368;49.484;11.112;2022-07-17T12:26:54;29.70;38.30
2721;DHT22;1368;49.484;11.112;2022-07-17T12:29:20;29.80;38.60
2721;DHT22;1368;49.484;11.112;2022-07-17T12:31:46;29.80;38.80
2721;DHT22;1368;49.484;11.112;2022-07-17T12:34:11;29.80;38.50
2721;DHT22;1368;49.484;11.112;2022-07-17T12:36:37;29.70;36.70
2721;DHT22;1368;49.484;11.112;2022-07-17T12:39:03;29.70;37.40
2721;DHT22;1368;49.484;11.112;2022-07-17T12:41:28;29.40;37.10
2721;DHT22;1368;49.484;11.112;2022-07-17T12:43:54;29.20;37.40
2721;DHT22;1368;49.484;11.112;2022-07-17T12:46:20;29.50;38.30
2721;DHT22;1368;49.484;11.112;2022-07-17T12:48:45;29.30;36.80
2721;DHT22;1368;49.484;11.112;2022-07-17T12:51:12;29.40;37.80
2721;DHT22;1368;49.484;11.112;2022-07-17T12:53:40;29.60;38.60
2721;DHT22;1368;49.484;11.112;2022-07-17T12:56:06;30.10;38.70
2721;DHT22;1368;49.484;11.112;2022-07-17T12:58:32;30.20;38.80
2721;DHT22;1368;49.484;11.112;2022-07-17T13:00:58;30.30;37.50
2721;DHT22;1368;49.484;11.112;2022-07-17T13:03:24;30.40;37.40
2721;DHT22;1368;49.484;11.112;2022-07-17T13:05:50;30.60;36.60
2721;DHT22;1368;49.484;11.112;2022-07-17T13:08:15;30.60;37.30
2721;DHT22;1368;49.484;11.112;2022-07-17T13:10:41;30.60;36.90
2721;DHT22;1368;49.484;11.112;2022-07-17T13:13:06;30.00;36.00
2721;DHT22;1368;49.484;11.112;2022-07-17T13:15:32;29.50;36.10
2721;DHT22;1368;49.484;11.112;2022-07-17T13:17:58;29.30;37.30
2721;DHT22;1368;49.484;11.112;2022-07-17T13:20:25;29.30;37.20
2721;DHT22;1368;49.484;11.112;2022-07-17T13:22:51;29.00;37.20
2721;DHT22;1368;49.484;11.112;2022-07-17T13:25:17;28.90;36.50
2721;DHT22;1368;49.484;11.112;2022-07-17T13:27:42;28.80;35.70
2721;DHT22;1368;49.484;11.112;2022-07-17T13:30:08;29.00;36.70
2721;DHT22;1368;49.484;11.112;2022-07-17T13:32:34;29.10;37.30
2721;DHT22;1368;49.484;11.112;2022-07-17T13:34:59;29.30;38.30
2721;DHT22;1368;49.484;11.112;2022-07-17T13:37:25;29.50;36.30
2721;DHT22;1368;49.484;11.112;2022-07-17T13:39:51;29.50;35.00
2721;DHT22;1368;49.484;11.112;2022-07-17T13:42:16;29.80;34.90
2721;DHT22;1368;49.484;11.112;2022-07-17T13:44:42;29.50;34.70
2721;DHT22;1368;49.484;11.112;2022-07-17T13:47:08;29.10;34.80
2721;DHT22;1368;49.484;11.112;2022-07-17T13:49:33;29.40;36.20
2721;DHT22;1368;49.484;11.112;2022-07-17T13:51:59;29.40;35.50
2721;DHT22;1368;49.484;11.112;2022-07-17T13:54:24;28.90;35.20
2721;DHT22;1368;49.484;11.112;2022-07-17T13:56:51;29.30;36.90
2721;DHT22;1368;49.484;11.112;2022-07-17T13:59:18;29.70;36.60
2721;DHT22;1368;49.484;11.112;2022-07-17T14:01:44;29.90;35.10
2721;DHT22;1368;49.484;11.112;2022-07-17T14:04:09;30.20;33.50
2721;DHT22;1368;49.484;11.112;2022-07-17T14:06:35;29.90;33.20
2721;DHT22;1368;49.484;11.112;2022-07-17T14:09:01;29.90;33.30
2721;DHT22;1368;49.484;11.112;2022-07-17T14:11:26;29.40;32.20
2721;DHT22;1368;49.484;11.112;2022-07-17T14:13:52;29.20;31.70
2721;DHT22;1368;49.484;11.112;2022-07-17T14:16:17;29.20;32.40
2721;DHT22;1368;49.484;11.112;2022-07-17T14:18:43;29.40;33.70
2721;DHT22;1368;49.484;11.112;2022-07-17T14:21:35;29.60;32.80
2721;DHT22;1368;49.484;11.112;2022-07-17T14:24:01;29.40;33.90
2721;DHT22;1368;49.484;11.112;2022-07-17T14:26:27;29.50;34.20
2721;DHT22;1368;49.484;11.112;2022-07-17T14:28:52;29.50;34.00
2721;DHT22;1368;49.484;11.112;2022-07-17T14:31:18;29.10;32.90
2721;DHT22;1368;49.484;11.112;2022-07-17T14:33:44;28.90;34.00
2721;DHT22;1368;49.484;11.112;2022-07-17T14:36:11;28.60;33.30
2721;DHT22;1368;49.484;11.112;2022-07-17T14:38:37;28.80;33.00
2721;DHT22;1368;49.484;11.112;2022-07-17T14:41:03;28.90;32.70
2721;DHT22;1368;49.484;11.112;2022-07-17T14:43:29;29.30;33.40
2721;DHT22;1368;49.484;11.112;2022-07-17T14:45:55;29.50;34.50
2721;DHT22;1368;49.484;11.112;2022-07-17T14:48:20;29.60;33.90
2721;DHT22;1368;49.484;11.112;2022-07-17T14:50:46;29.50;35.70
2721;DHT22;1368;49.484;11.112;2022-07-17T14:53:12;29.40;35.10
2721;DHT22;1368;49.484;11.112;2022-07-17T14:55:37;29.30;35.40
2721;DHT22;1368;49.484;11.112;2022-07-17T14:58:03;29.00;32.00
2721;DHT22;1368;49.484;11.112;2022-07-17T15:00:29;29.00;32.00
2721;DHT22;1368;49.484;11.112;2022-07-17T15:02:54;29.00;32.20
2721;DHT22;1368;49.484;11.112;2022-07-17T15:05:20;28.90;32.70
2721;DHT22;1368;49.484;11.112;2022-07-17T15:07:45;28.80;32.40
2721;DHT22;1368;49.484;11.112;2022-07-17T15:10:11;28.40;31.80
2721;DHT22;1368;49.484;11.112;2022-07-17T15:12:37;28.40;32.00
2721;DHT22;1368;49.484;11.112;2022-07-17T15:15:02;28.30;31.90
2721;DHT22;1368;49.484;11.112;2022-07-17T15:17:28;28.60;32.90
2721;DHT22;1368;49.484;11.112;2022-07-17T15:19:54;28.60;32.50
2721;DHT22;1368;49.484;11.112;2022-07-17T15:22:19;28.40;32.30
2721;DHT22;1368;49.484;11.112;2022-07-17T15:24:45;28.20;31.70
2721;DHT22;1368;49.484;11.112;2022-07-17T15:27:11;28.40;32.30
2721;DHT22;1368;49.484;11.112;2022-07-17T15:29:36;28.40;32.10
2721;DHT22;1368;49.484;11.112;2022-07-17T15:32:04;28.40;31.80
2721;DHT22;1368;49.484;11.112;2022-07-17T15:34:29;28.60;32.20
2721;DHT22;1368;49.484;11.112;2022-07-17T15:36:55;28.60;33.20
2721;DHT22;1368;49.484;11.112;2022-07-17T15:39:20;28.70;31.80
2721;DHT22;1368;49.484;11.112;2022-07-17T15:41:46;28.80;33.00
2721;DHT22;1368;49.484;11.112;2022-07-17T15:44:12;28.90;33.00
2721;DHT22;1368;49.484;11.112;2022-07-17T15:46:38;28.70;31.70
2721;DHT22;1368;49.484;11.112;2022-07-17T15:49:04;28.70;32.00
2721;DHT22;1368;49.484;11.112;2022-07-17T15:51:30;29.00;32.30
2721;DHT22;1368;49.484;11.112;2022-07-17T15:53:56;29.20;30.40
2721;DHT22;1368;49.484;11.112;2022-07-17T15:56:22;29.00;30.40